Terminal Aerodrome Forecast
Issued by NWS Bismarck, ND

Home | Current Version | Previous Version | Text Only | Print | Product List | Glossary On
Versions: 1 2 3 4 5 6 7 8 9 10 11 12 13 14
000
FTUS43 KBIS 211139
TAFISN
TAF
KISN 211139Z 2112/2212 21016KT P6SM BKN220 WS020/28030KT
     FM211400 25017KT P6SM BKN040 WS020/28030KT
     FM211600 27019G29KT P6SM BKN035
     FM211900 28023G34KT P6SM BKN040
     FM212300 28019G29KT P6SM SCT140
     FM220100 26011KT P6SM FEW250
      AMD NOT SKED=

USA.gov is the U.S. government's official web portal to all federal, state and local government web resources and services.